sensor_id;sensor_type;location;lat;lon;timestamp;pressure;altitude;pressure_sealevel;temperature;humidity
24666;BME280;29726;53.532;-1.478;2024-03-25T00:01:41;99636.31;;;9.57;nan
24666;BME280;29726;53.532;-1.478;2024-03-25T00:04:25;99627.56;;;9.49;nan
24666;BME280;29726;53.532;-1.478;2024-03-25T00:07:09;99630.34;;;9.49;nan
24666;BME280;29726;53.532;-1.478;2024-03-25T00:09:53;99620.84;;;9.41;nan
24666;BME280;29726;53.532;-1.478;2024-03-25T00:12:38;99556.91;;;9.03;nan
24666;BME280;29726;53.532;-1.478;2024-03-25T00:15:22;99607.78;;;9.33;nan
24666;BME280;29726;53.532;-1.478;2024-03-25T00:18:07;99615.97;;;9.36;nan
24666;BME280;29726;53.532;-1.478;2024-03-25T00:20:51;99601.47;;;9.32;nan
24666;BME280;29726;53.532;-1.478;2024-03-25T00:23:35;99592.16;;;9.21;nan
24666;BME280;29726;53.532;-1.478;2024-03-25T00:26:19;99601.09;;;9.25;nan
24666;BME280;29726;53.532;-1.478;2024-03-25T00:29:03;99586.09;;;9.22;nan
24666;BME280;29726;53.532;-1.478;2024-03-25T00:31:47;99554.63;;;9.02;nan
24666;BME280;29726;53.532;-1.478;2024-03-25T00:34:31;99580.34;;;9.11;nan
24666;BME280;29726;53.532;-1.478;2024-03-25T00:37:16;99574.09;;;9.02;nan
24666;BME280;29726;53.532;-1.478;2024-03-25T00:40:00;99554.63;;;8.87;nan
24666;BME280;29726;53.532;-1.478;2024-03-25T00:42:44;99584.28;;;9.05;nan
24666;BME280;29726;53.532;-1.478;2024-03-25T00:45:30;99574.78;;;8.97;nan
24666;BME280;29726;53.532;-1.478;2024-03-25T00:48:14;99568.81;;;8.89;nan
24666;BME280;29726;53.532;-1.478;2024-03-25T00:50:58;99568.31;;;8.91;nan
24666;BME280;29726;53.532;-1.478;2024-03-25T00:53:42;99569.09;;;8.91;nan
24666;BME280;29726;53.532;-1.478;2024-03-25T00:56:27;99504.28;;;8.47;nan
24666;BME280;29726;53.532;-1.478;2024-03-25T00:59:11;99557.75;;;8.80;nan
24666;BME280;29726;53.532;-1.478;2024-03-25T01:01:55;99550.19;;;8.81;nan
24666;BME280;29726;53.532;-1.478;2024-03-25T01:04:39;99550.47;;;8.83;nan
24666;BME280;29726;53.532;-1.478;2024-03-25T01:07:23;99551.91;;;8.78;nan
24666;BME280;29726;53.532;-1.478;2024-03-25T01:10:07;99552.41;;;8.77;nan
24666;BME280;29726;53.532;-1.478;2024-03-25T01:12:51;99554.69;;;8.78;nan
24666;BME280;29726;53.532;-1.478;2024-03-25T01:15:35;99542.97;;;8.74;nan
24666;BME280;29726;53.532;-1.478;2024-03-25T01:18:19;99521.66;;;8.57;nan
24666;BME280;29726;53.532;-1.478;2024-03-25T01:21:03;99482.63;;;8.37;nan
24666;BME280;29726;53.532;-1.478;2024-03-25T01:23:48;99522.94;;;8.70;nan
24666;BME280;29726;53.532;-1.478;2024-03-25T01:26:32;99526.78;;;8.73;nan
24666;BME280;29726;53.532;-1.478;2024-03-25T01:29:16;99510.16;;;8.64;nan
24666;BME280;29726;53.532;-1.478;2024-03-25T01:32:00;99501.53;;;8.62;nan
24666;BME280;29726;53.532;-1.478;2024-03-25T01:34:44;99510.44;;;8.66;nan
24666;BME280;29726;53.532;-1.478;2024-03-25T01:37:28;99484.72;;;8.56;nan
24666;BME280;29726;53.532;-1.478;2024-03-25T01:40:12;99491.94;;;8.63;nan
24666;BME280;29726;53.532;-1.478;2024-03-25T01:43:00;99500.84;;;8.67;nan
24666;BME280;29726;53.532;-1.478;2024-03-25T01:45:45;99475.13;;;8.57;nan
24666;BME280;29726;53.532;-1.478;2024-03-25T01:48:29;99480.81;;;8.63;nan
24666;BME280;29726;53.532;-1.478;2024-03-25T01:51:14;99490.97;;;8.66;nan
24666;BME280;29726;53.532;-1.478;2024-03-25T01:54:00;99477.00;;;8.60;nan
24666;BME280;29726;53.532;-1.478;2024-03-25T01:56:45;99483.59;;;8.63;nan
24666;BME280;29726;53.532;-1.478;2024-03-25T01:59:30;99460.09;;;8.49;nan
24666;BME280;29726;53.532;-1.478;2024-03-25T02:02:14;99476.22;;;8.60;nan
24666;BME280;29726;53.532;-1.478;2024-03-25T02:04:58;99467.00;;;8.54;nan
24666;BME280;29726;53.532;-1.478;2024-03-25T02:07:43;99447.16;;;8.46;nan
24666;BME280;29726;53.532;-1.478;2024-03-25T02:10:29;99455.19;;;8.44;nan
24666;BME280;29726;53.532;-1.478;2024-03-25T02:13:14;99456.06;;;8.50;nan
24666;BME280;29726;53.532;-1.478;2024-03-25T02:15:58;99455.59;;;8.52;nan
24666;BME280;29726;53.532;-1.478;2024-03-25T02:18:43;99449.25;;;8.51;nan
24666;BME280;29726;53.532;-1.478;2024-03-25T02:21:26;99436.31;;;8.48;nan
24666;BME280;29726;53.532;-1.478;2024-03-25T02:24:11;99431.81;;;8.51;nan
24666;BME280;29726;53.532;-1.478;2024-03-25T02:26:56;99405.53;;;8.37;nan
24666;BME280;29726;53.532;-1.478;2024-03-25T02:29:43;99419.16;;;8.50;nan
24666;BME280;29726;53.532;-1.478;2024-03-25T02:32:28;99419.16;;;8.50;nan
24666;BME280;29726;53.532;-1.478;2024-03-25T02:35:15;99406.78;;;8.51;nan
24666;BME280;29726;53.532;-1.478;2024-03-25T02:38:00;99406.00;;;8.50;nan
24666;BME280;29726;53.532;-1.478;2024-03-25T02:40:45;99394.88;;;8.50;nan
24666;BME280;29726;53.532;-1.478;2024-03-25T02:43:29;99370.81;;;8.33;nan
24666;BME280;29726;53.532;-1.478;2024-03-25T02:46:13;99378.09;;;8.45;nan
24666;BME280;29726;53.532;-1.478;2024-03-25T02:48:57;99327.75;;;8.14;nan
24666;BME280;29726;53.532;-1.478;2024-03-25T02:51:41;99314.53;;;8.09;nan
24666;BME280;29726;53.532;-1.478;2024-03-25T02:54:25;99376.66;;;8.49;nan
24666;BME280;29726;53.532;-1.478;2024-03-25T02:57:09;99370.81;;;8.47;nan
24666;BME280;29726;53.532;-1.478;2024-03-25T02:59:53;99363.25;;;8.48;nan
24666;BME280;29726;53.532;-1.478;2024-03-25T03:02:36;99338.03;;;8.37;nan
24666;BME280;29726;53.532;-1.478;2024-03-25T03:05:21;99337.84;;;8.40;nan
24666;BME280;29726;53.532;-1.478;2024-03-25T03:08:05;99320.97;;;8.29;nan
24666;BME280;29726;53.532;-1.478;2024-03-25T03:10:49;99338.41;;;8.44;nan
24666;BME280;29726;53.532;-1.478;2024-03-25T03:13:33;99317.72;;;8.31;nan
24666;BME280;29726;53.532;-1.478;2024-03-25T03:16:17;99321.25;;;8.31;nan
24666;BME280;29726;53.532;-1.478;2024-03-25T03:19:01;99271.50;;;8.05;nan
24666;BME280;29726;53.532;-1.478;2024-03-25T03:21:44;99333.91;;;8.47;nan
24666;BME280;29726;53.532;-1.478;2024-03-25T03:24:28;99325.25;;;8.45;nan
24666;BME280;29726;53.532;-1.478;2024-03-25T03:27:12;99315.66;;;8.46;nan
24666;BME280;29726;53.532;-1.478;2024-03-25T03:29:56;99311.34;;;8.45;nan
24666;BME280;29726;53.532;-1.478;2024-03-25T03:32:41;99304.25;;;8.44;nan
24666;BME280;29726;53.532;-1.478;2024-03-25T03:35:25;99235.09;;;8.03;nan
24666;BME280;29726;53.532;-1.478;2024-03-25T03:38:09;99290.38;;;8.44;nan
24666;BME280;29726;53.532;-1.478;2024-03-25T03:41:00;99290.38;;;8.44;nan
24666;BME280;29726;53.532;-1.478;2024-03-25T03:43:44;99263.66;;;8.32;nan
24666;BME280;29726;53.532;-1.478;2024-03-25T03:46:28;99272.16;;;8.43;nan
24666;BME280;29726;53.532;-1.478;2024-03-25T03:49:13;99253.50;;;8.29;nan
24666;BME280;29726;53.532;-1.478;2024-03-25T03:51:57;99274.94;;;8.43;nan
24666;BME280;29726;53.532;-1.478;2024-03-25T03:54:41;99281.28;;;8.43;nan
24666;BME280;29726;53.532;-1.478;2024-03-25T03:57:25;99259.63;;;8.33;nan
24666;BME280;29726;53.532;-1.478;2024-03-25T04:00:12;99257.91;;;8.35;nan
24666;BME280;29726;53.532;-1.478;2024-03-25T04:02:57;99206.56;;;8.02;nan
24666;BME280;29726;53.532;-1.478;2024-03-25T04:05:42;99267.09;;;8.41;nan
24666;BME280;29726;53.532;-1.478;2024-03-25T04:08:26;99263.25;;;8.39;nan
24666;BME280;29726;53.532;-1.478;2024-03-25T04:11:10;99260.19;;;8.37;nan
24666;BME280;29726;53.532;-1.478;2024-03-25T04:13:54;99248.78;;;8.35;nan
24666;BME280;29726;53.532;-1.478;2024-03-25T04:16:38;99257.22;;;8.40;nan
24666;BME280;29726;53.532;-1.478;2024-03-25T04:19:26;99247.34;;;8.39;nan
24666;BME280;29726;53.532;-1.478;2024-03-25T04:22:10;99247.81;;;8.38;nan
24666;BME280;29726;53.532;-1.478;2024-03-25T04:24:54;99250.88;;;8.40;nan
24666;BME280;29726;53.532;-1.478;2024-03-25T04:27:43;99248.09;;;8.40;nan
24666;BME280;29726;53.532;-1.478;2024-03-25T04:30:27;99238.13;;;8.33;nan
24666;BME280;29726;53.532;-1.478;2024-03-25T04:33:11;99246.28;;;8.37;nan
24666;BME280;29726;53.532;-1.478;2024-03-25T04:35:55;99242.38;;;8.29;nan
24666;BME280;29726;53.532;-1.478;2024-03-25T04:38:39;99240.72;;;8.37;nan
24666;BME280;29726;53.532;-1.478;2024-03-25T04:41:23;99243.50;;;8.37;nan
24666;BME280;29726;53.532;-1.478;2024-03-25T04:44:07;99239.66;;;8.34;nan
24666;BME280;29726;53.532;-1.478;2024-03-25T04:46:51;99210.38;;;8.19;nan
24666;BME280;29726;53.532;-1.478;2024-03-25T04:49:35;99233.63;;;8.36;nan
24666;BME280;29726;53.532;-1.478;2024-03-25T04:52:18;99207.28;;;8.17;nan
24666;BME280;29726;53.532;-1.478;2024-03-25T04:55:07;99232.09;;;8.35;nan
24666;BME280;29726;53.532;-1.478;2024-03-25T04:57:51;99218.19;;;8.35;nan
24666;BME280;29726;53.532;-1.478;2024-03-25T05:00:35;99216.66;;;8.34;nan
24666;BME280;29726;53.532;-1.478;2024-03-25T05:03:19;99199.44;;;8.30;nan
24666;BME280;29726;53.532;-1.478;2024-03-25T05:06:03;99171.28;;;8.08;nan
24666;BME280;29726;53.532;-1.478;2024-03-25T05:08:49;99194.34;;;8.28;nan
24666;BME280;29726;53.532;-1.478;2024-03-25T05:11:33;99196.94;;;8.32;nan
24666;BME280;29726;53.532;-1.478;2024-03-25T05:14:17;99203.25;;;8.32;nan
24666;BME280;29726;53.532;-1.478;2024-03-25T05:17:01;99194.91;;;8.32;nan
24666;BME280;29726;53.532;-1.478;2024-03-25T05:19:47;99178.34;;;8.23;nan
24666;BME280;29726;53.532;-1.478;2024-03-25T05:22:31;99164.38;;;8.18;nan
24666;BME280;29726;53.532;-1.478;2024-03-25T05:25:15;99189.06;;;8.30;nan
24666;BME280;29726;53.532;-1.478;2024-03-25T05:27:59;99185.81;;;8.32;nan
24666;BME280;29726;53.532;-1.478;2024-03-25T05:30:43;99121.03;;;7.92;nan
24666;BME280;29726;53.532;-1.478;2024-03-25T05:33:27;99181.50;;;8.31;nan
24666;BME280;29726;53.532;-1.478;2024-03-25T05:36:11;99170.78;;;8.24;nan
24666;BME280;29726;53.532;-1.478;2024-03-25T05:38:55;99176.13;;;8.27;nan
24666;BME280;29726;53.532;-1.478;2024-03-25T05:41:40;99168.84;;;8.30;nan
24666;BME280;29726;53.532;-1.478;2024-03-25T05:44:24;99165.28;;;8.29;nan
24666;BME280;29726;53.532;-1.478;2024-03-25T05:47:08;99161.50;;;8.27;nan
24666;BME280;29726;53.532;-1.478;2024-03-25T05:49:52;99154.41;;;8.26;nan
24666;BME280;29726;53.532;-1.478;2024-03-25T05:52:37;99153.44;;;8.29;nan
24666;BME280;29726;53.532;-1.478;2024-03-25T05:55:21;99142.31;;;8.29;nan
24666;BME280;29726;53.532;-1.478;2024-03-25T05:58:05;99127.00;;;8.19;nan
24666;BME280;29726;53.532;-1.478;2024-03-25T06:00:49;99143.06;;;8.29;nan
24666;BME280;29726;53.532;-1.478;2024-03-25T06:03:33;99130.56;;;8.20;nan
24666;BME280;29726;53.532;-1.478;2024-03-25T06:06:17;99120.84;;;8.15;nan
24666;BME280;29726;53.532;-1.478;2024-03-25T06:09:02;99135.59;;;8.21;nan
24666;BME280;29726;53.532;-1.478;2024-03-25T06:11:45;99133.59;;;8.22;nan
24666;BME280;29726;53.532;-1.478;2024-03-25T06:14:29;99150.66;;;8.29;nan
24666;BME280;29726;53.532;-1.478;2024-03-25T06:17:14;99138.47;;;8.26;nan
24666;BME280;29726;53.532;-1.478;2024-03-25T06:19:57;99142.31;;;8.29;nan
24666;BME280;29726;53.532;-1.478;2024-03-25T06:22:41;99131.38;;;8.25;nan
24666;BME280;29726;53.532;-1.478;2024-03-25T06:25:25;99125.06;;;8.25;nan
24666;BME280;29726;53.532;-1.478;2024-03-25T06:28:09;99134.72;;;8.29;nan
24666;BME280;29726;53.532;-1.478;2024-03-25T06:30:53;99120.06;;;8.29;nan
24666;BME280;29726;53.532;-1.478;2024-03-25T06:33:56;99128.59;;;8.25;nan
24666;BME280;29726;53.532;-1.478;2024-03-25T06:37:01;99118.25;;;8.26;nan
24666;BME280;29726;53.532;-1.478;2024-03-25T06:39:45;99090.19;;;8.10;nan
24666;BME280;29726;53.532;-1.478;2024-03-25T06:42:29;99104.00;;;8.19;nan
24666;BME280;29726;53.532;-1.478;2024-03-25T06:45:13;99116.78;;;8.30;nan
24666;BME280;29726;53.532;-1.478;2024-03-25T06:47:58;99112.97;;;8.28;nan
24666;BME280;29726;53.532;-1.478;2024-03-25T06:50:54;99111.22;;;8.30;nan
24666;BME280;29726;53.532;-1.478;2024-03-25T06:53:38;99055.09;;;7.92;nan
24666;BME280;29726;53.532;-1.478;2024-03-25T06:56:22;99112.00;;;8.31;nan
24666;BME280;29726;53.532;-1.478;2024-03-25T06:59:06;99107.97;;;8.32;nan
24666;BME280;29726;53.532;-1.478;2024-03-25T07:01:50;99107.97;;;8.32;nan
24666;BME280;29726;53.532;-1.478;2024-03-25T07:04:34;99094.19;;;8.23;nan
24666;BME280;29726;53.532;-1.478;2024-03-25T07:07:20;99051.91;;;7.99;nan
24666;BME280;29726;53.532;-1.478;2024-03-25T07:10:04;99077.25;;;8.21;nan
24666;BME280;29726;53.532;-1.478;2024-03-25T07:12:48;99081.28;;;8.20;nan
24666;BME280;29726;53.532;-1.478;2024-03-25T07:15:32;99086.00;;;8.34;nan
24666;BME280;29726;53.532;-1.478;2024-03-25T07:18:16;99087.47;;;8.29;nan
24666;BME280;29726;53.532;-1.478;2024-03-25T07:21:00;99076.56;;;8.26;nan
24666;BME280;29726;53.532;-1.478;2024-03-25T07:23:44;99013.34;;;7.87;nan
24666;BME280;29726;53.532;-1.478;2024-03-25T07:26:28;99081.16;;;8.29;nan
24666;BME280;29726;53.532;-1.478;2024-03-25T07:29:13;99075.88;;;8.31;nan
24666;BME280;29726;53.532;-1.478;2024-03-25T07:31:57;99080.72;;;8.36;nan
24666;BME280;29726;53.532;-1.478;2024-03-25T07:34:41;99076.41;;;8.35;nan
24666;BME280;29726;53.532;-1.478;2024-03-25T07:37:26;99073.72;;;8.40;nan
24666;BME280;29726;53.532;-1.478;2024-03-25T07:40:10;99054.88;;;8.30;nan
24666;BME280;29726;53.532;-1.478;2024-03-25T07:42:55;99076.78;;;8.42;nan
24666;BME280;29726;53.532;-1.478;2024-03-25T07:45:40;99078.28;;;8.43;nan
24666;BME280;29726;53.532;-1.478;2024-03-25T07:48:24;99072.22;;;8.45;nan
24666;BME280;29726;53.532;-1.478;2024-03-25T07:51:08;99068.19;;;8.46;nan
24666;BME280;29726;53.532;-1.478;2024-03-25T07:53:52;99064.94;;;8.47;nan
24666;BME280;29726;53.532;-1.478;2024-03-25T07:56:36;99042.50;;;8.31;nan
24666;BME280;29726;53.532;-1.478;2024-03-25T07:59:23;99049.25;;;8.44;nan
24666;BME280;29726;53.532;-1.478;2024-03-25T08:02:06;99050.28;;;8.47;nan
24666;BME280;29726;53.532;-1.478;2024-03-25T08:04:50;99044.13;;;8.37;nan
24666;BME280;29726;53.532;-1.478;2024-03-25T08:07:35;99055.63;;;8.50;nan
24666;BME280;29726;53.532;-1.478;2024-03-25T08:10:19;99026.66;;;8.37;nan
24666;BME280;29726;53.532;-1.478;2024-03-25T08:13:03;99047.06;;;8.54;nan
24666;BME280;29726;53.532;-1.478;2024-03-25T08:15:47;99050.84;;;8.51;nan
24666;BME280;29726;53.532;-1.478;2024-03-25T08:18:31;99033.03;;;8.43;nan
24666;BME280;29726;53.532;-1.478;2024-03-25T08:21:15;99029.00;;;8.44;nan
24666;BME280;29726;53.532;-1.478;2024-03-25T08:23:59;99033.91;;;8.54;nan
24666;BME280;29726;53.532;-1.478;2024-03-25T08:26:43;99035.25;;;8.59;nan
24666;BME280;29726;53.532;-1.478;2024-03-25T08:29:27;99027.16;;;8.61;nan
24666;BME280;29726;53.532;-1.478;2024-03-25T08:32:11;98967.91;;;8.24;nan
24666;BME280;29726;53.532;-1.478;2024-03-25T08:34:55;98963.09;;;8.24;nan
24666;BME280;29726;53.532;-1.478;2024-03-25T08:37:39;98971.56;;;8.35;nan
24666;BME280;29726;53.532;-1.478;2024-03-25T08:40:22;99012.28;;;8.64;nan
24666;BME280;29726;53.532;-1.478;2024-03-25T08:43:07;99014.59;;;8.65;nan
24666;BME280;29726;53.532;-1.478;2024-03-25T08:45:51;99001.38;;;8.60;nan
24666;BME280;29726;53.532;-1.478;2024-03-25T08:48:35;99018.09;;;8.60;nan
24666;BME280;29726;53.532;-1.478;2024-03-25T08:51:19;99021.16;;;8.68;nan
24666;BME280;29726;53.532;-1.478;2024-03-25T08:54:03;99016.84;;;8.67;nan
24666;BME280;29726;53.532;-1.478;2024-03-25T08:56:47;99020.97;;;8.71;nan
24666;BME280;29726;53.532;-1.478;2024-03-25T08:59:31;99007.97;;;8.63;nan
24666;BME280;29726;53.532;-1.478;2024-03-25T09:02:15;99012.13;;;8.73;nan
24666;BME280;29726;53.532;-1.478;2024-03-25T09:04:59;98958.13;;;8.34;nan
24666;BME280;29726;53.532;-1.478;2024-03-25T09:07:44;98998.38;;;8.64;nan
24666;BME280;29726;53.532;-1.478;2024-03-25T09:10:28;99009.91;;;8.77;nan
24666;BME280;29726;53.532;-1.478;2024-03-25T09:13:31;99015.72;;;8.79;nan
24666;BME280;29726;53.532;-1.478;2024-03-25T09:16:15;99008.84;;;8.74;nan
24666;BME280;29726;53.532;-1.478;2024-03-25T09:18:59;99016.00;;;8.81;nan
24666;BME280;29726;53.532;-1.478;2024-03-25T09:21:43;98961.00;;;8.45;nan
24666;BME280;29726;53.532;-1.478;2024-03-25T09:24:27;99019.03;;;8.83;nan
24666;BME280;29726;53.532;-1.478;2024-03-25T09:27:11;99014.03;;;8.87;nan
24666;BME280;29726;53.532;-1.478;2024-03-25T09:29:55;98989.09;;;8.72;nan
24666;BME280;29726;53.532;-1.478;2024-03-25T09:32:40;99017.84;;;8.89;nan
24666;BME280;29726;53.532;-1.478;2024-03-25T09:35:24;99008.53;;;8.92;nan
24666;BME280;29726;53.532;-1.478;2024-03-25T09:38:08;99004.97;;;8.92;nan
24666;BME280;29726;53.532;-1.478;2024-03-25T09:40:53;98987.78;;;8.93;nan
24666;BME280;29726;53.532;-1.478;2024-03-25T09:43:44;98994.38;;;8.96;nan
24666;BME280;29726;53.532;-1.478;2024-03-25T09:46:31;98984.78;;;8.97;nan
24666;BME280;29726;53.532;-1.478;2024-03-25T09:49:17;98955.78;;;8.78;nan
24666;BME280;29726;53.532;-1.478;2024-03-25T09:52:03;98933.66;;;8.63;nan
24666;BME280;29726;53.532;-1.478;2024-03-25T09:54:47;98977.97;;;8.98;nan
24666;BME280;29726;53.532;-1.478;2024-03-25T09:57:32;98964.25;;;8.94;nan
24666;BME280;29726;53.532;-1.478;2024-03-25T10:00:16;98984.06;;;9.02;nan
24666;BME280;29726;53.532;-1.478;2024-03-25T10:03:01;98966.06;;;8.97;nan
24666;BME280;29726;53.532;-1.478;2024-03-25T10:05:44;98989.13;;;9.03;nan
24666;BME280;29726;53.532;-1.478;2024-03-25T10:08:29;98981.81;;;9.06;nan
24666;BME280;29726;53.532;-1.478;2024-03-25T10:11:16;98970.91;;;9.02;nan
24666;BME280;29726;53.532;-1.478;2024-03-25T10:14:00;98972.22;;;9.07;nan
24666;BME280;29726;53.532;-1.478;2024-03-25T10:16:44;98983.13;;;9.10;nan
24666;BME280;29726;53.532;-1.478;2024-03-25T10:19:28;98977.03;;;9.12;nan
24666;BME280;29726;53.532;-1.478;2024-03-25T10:22:12;98958.06;;;9.10;nan
24666;BME280;29726;53.532;-1.478;2024-03-25T10:24:56;98966.44;;;9.10;nan
24666;BME280;29726;53.532;-1.478;2024-03-25T10:28:01;98969.69;;;9.09;nan
24666;BME280;29726;53.532;-1.478;2024-03-25T10:30:45;98956.56;;;9.15;nan
24666;BME280;29726;53.532;-1.478;2024-03-25T10:33:30;98959.88;;;9.13;nan
24666;BME280;29726;53.532;-1.478;2024-03-25T10:36:14;98939.81;;;9.04;nan
24666;BME280;29726;53.532;-1.478;2024-03-25T10:39:02;98956.34;;;9.18;nan
24666;BME280;29726;53.532;-1.478;2024-03-25T10:41:55;98935.50;;;9.03;nan
24666;BME280;29726;53.532;-1.478;2024-03-25T10:44:40;98939.88;;;9.15;nan
24666;BME280;29726;53.532;-1.478;2024-03-25T10:47:28;98937.41;;;9.22;nan
24666;BME280;29726;53.532;-1.478;2024-03-25T10:50:14;98938.59;;;9.10;nan
24666;BME280;29726;53.532;-1.478;2024-03-25T10:53:02;98947.53;;;9.25;nan
24666;BME280;29726;53.532;-1.478;2024-03-25T10:55:50;98954.13;;;9.28;nan
24666;BME280;29726;53.532;-1.478;2024-03-25T10:58:35;98949.34;;;9.28;nan
24666;BME280;29726;53.532;-1.478;2024-03-25T11:01:20;98929.81;;;9.23;nan
24666;BME280;29726;53.532;-1.478;2024-03-25T11:04:05;98936.44;;;9.31;nan
24666;BME280;29726;53.532;-1.478;2024-03-25T11:06:50;98897.84;;;9.07;nan
24666;BME280;29726;53.532;-1.478;2024-03-25T11:09:34;98923.25;;;9.26;nan
24666;BME280;29726;53.532;-1.478;2024-03-25T11:12:18;98909.28;;;9.20;nan
24666;BME280;29726;53.532;-1.478;2024-03-25T11:15:03;98920.50;;;9.31;nan
24666;BME280;29726;53.532;-1.478;2024-03-25T11:17:49;98928.13;;;9.36;nan
24666;BME280;29726;53.532;-1.478;2024-03-25T11:20:33;98929.38;;;9.35;nan
24666;BME280;29726;53.532;-1.478;2024-03-25T11:23:17;98928.66;;;9.40;nan
24666;BME280;29726;53.532;-1.478;2024-03-25T11:26:01;98905.56;;;9.29;nan
24666;BME280;29726;53.532;-1.478;2024-03-25T11:28:46;98890.38;;;9.30;nan
24666;BME280;29726;53.532;-1.478;2024-03-25T11:31:33;98907.91;;;9.41;nan
24666;BME280;29726;53.532;-1.478;2024-03-25T11:34:16;98902.31;;;9.41;nan
24666;BME280;29726;53.532;-1.478;2024-03-25T11:37:00;98884.06;;;9.29;nan
24666;BME280;29726;53.532;-1.478;2024-03-25T11:39:45;98909.19;;;9.46;nan
24666;BME280;29726;53.532;-1.478;2024-03-25T11:42:30;98904.38;;;9.46;nan
24666;BME280;29726;53.532;-1.478;2024-03-25T11:45:19;98900.09;;;9.51;nan
24666;BME280;29726;53.532;-1.478;2024-03-25T11:48:03;98896.06;;;9.52;nan
24666;BME280;29726;53.532;-1.478;2024-03-25T11:50:47;98884.13;;;9.51;nan
24666;BME280;29726;53.532;-1.478;2024-03-25T11:53:32;98866.13;;;9.41;nan
24666;BME280;29726;53.532;-1.478;2024-03-25T11:56:16;98882.16;;;9.57;nan
24666;BME280;29726;53.532;-1.478;2024-03-25T11:59:00;98860.06;;;9.48;nan
24666;BME280;29726;53.532;-1.478;2024-03-25T12:01:45;98873.28;;;9.59;nan
24666;BME280;29726;53.532;-1.478;2024-03-25T12:04:29;98860.63;;;9.58;nan
24666;BME280;29726;53.532;-1.478;2024-03-25T12:07:14;98862.16;;;9.53;nan
24666;BME280;29726;53.532;-1.478;2024-03-25T12:09:58;98872.84;;;9.66;nan
24666;BME280;29726;53.532;-1.478;2024-03-25T12:13:01;98863.97;;;9.67;nan
24666;BME280;29726;53.532;-1.478;2024-03-25T12:15:47;98848.47;;;9.61;nan
24666;BME280;29726;53.532;-1.478;2024-03-25T12:18:31;98847.72;;;9.60;nan
24666;BME280;29726;53.532;-1.478;2024-03-25T12:21:15;98840.16;;;9.66;nan
24666;BME280;29726;53.532;-1.478;2024-03-25T12:23:59;98831.78;;;9.66;nan
24666;BME280;29726;53.532;-1.478;2024-03-25T12:26:43;98843.47;;;9.76;nan
24666;BME280;29726;53.532;-1.478;2024-03-25T12:29:28;98832.31;;;9.70;nan
24666;BME280;29726;53.532;-1.478;2024-03-25T12:32:12;98814.06;;;9.64;nan
24666;BME280;29726;53.532;-1.478;2024-03-25T12:34:57;98828.78;;;9.81;nan
24666;BME280;29726;53.532;-1.478;2024-03-25T12:37:43;98810.53;;;9.74;nan
24666;BME280;29726;53.532;-1.478;2024-03-25T12:40:28;98817.41;;;9.84;nan
24666;BME280;29726;53.532;-1.478;2024-03-25T12:43:17;98814.38;;;9.82;nan
24666;BME280;29726;53.532;-1.478;2024-03-25T12:46:02;98816.41;;;9.87;nan
24666;BME280;29726;53.532;-1.478;2024-03-25T12:48:49;98807.00;;;9.84;nan
24666;BME280;29726;53.532;-1.478;2024-03-25T12:51:33;98761.63;;;9.57;nan
24666;BME280;29726;53.532;-1.478;2024-03-25T12:54:17;98813.88;;;9.89;nan
24666;BME280;29726;53.532;-1.478;2024-03-25T12:57:01;98796.91;;;9.87;nan
24666;BME280;29726;53.532;-1.478;2024-03-25T12:59:45;98792.06;;;9.82;nan
24666;BME280;29726;53.532;-1.478;2024-03-25T13:02:28;98781.44;;;9.86;nan
24666;BME280;29726;53.532;-1.478;2024-03-25T13:05:12;98772.56;;;9.82;nan
24666;BME280;29726;53.532;-1.478;2024-03-25T13:07:56;98790.06;;;9.93;nan
24666;BME280;29726;53.532;-1.478;2024-03-25T13:10:40;98754.81;;;9.80;nan
24666;BME280;29726;53.532;-1.478;2024-03-25T13:13:24;98769.78;;;9.93;nan
24666;BME280;29726;53.532;-1.478;2024-03-25T13:16:09;98769.53;;;9.96;nan
24666;BME280;29726;53.532;-1.478;2024-03-25T13:18:53;98771.56;;;9.96;nan
24666;BME280;29726;53.532;-1.478;2024-03-25T13:21:38;98772.09;;;9.94;nan
24666;BME280;29726;53.532;-1.478;2024-03-25T13:24:22;98774.38;;;10.01;nan
24666;BME280;29726;53.532;-1.478;2024-03-25T13:27:06;98768.78;;;9.96;nan
24666;BME280;29726;53.532;-1.478;2024-03-25T13:29:50;98771.38;;;10.05;nan
24666;BME280;29726;53.532;-1.478;2024-03-25T13:32:36;98761.97;;;10.02;nan
24666;BME280;29726;53.532;-1.478;2024-03-25T13:35:20;98750.28;;;9.98;nan
24666;BME280;29726;53.532;-1.478;2024-03-25T13:38:04;98755.38;;;10.05;nan
24666;BME280;29726;53.532;-1.478;2024-03-25T13:40:48;98730.53;;;9.91;nan
24666;BME280;29726;53.532;-1.478;2024-03-25T13:43:32;98756.41;;;10.08;nan
24666;BME280;29726;53.532;-1.478;2024-03-25T13:46:16;98755.13;;;10.09;nan
24666;BME280;29726;53.532;-1.478;2024-03-25T13:49:01;98730.56;;;10.02;nan
24666;BME280;29726;53.532;-1.478;2024-03-25T13:51:44;98743.22;;;10.08;nan
24666;BME280;29726;53.532;-1.478;2024-03-25T13:54:29;98744.25;;;10.11;nan
24666;BME280;29726;53.532;-1.478;2024-03-25T13:57:16;98734.34;;;10.10;nan
24666;BME280;29726;53.532;-1.478;2024-03-25T14:00:00;98728.78;;;10.15;nan
24666;BME280;29726;53.532;-1.478;2024-03-25T14:02:50;98722.69;;;10.17;nan
24666;BME280;29726;53.532;-1.478;2024-03-25T14:05:33;98702.94;;;10.04;nan
24666;BME280;29726;53.532;-1.478;2024-03-25T14:08:17;98715.59;;;10.16;nan
24666;BME280;29726;53.532;-1.478;2024-03-25T14:11:02;98719.91;;;10.22;nan
24666;BME280;29726;53.532;-1.478;2024-03-25T14:13:47;98710.28;;;10.23;nan
24666;BME280;29726;53.532;-1.478;2024-03-25T14:16:30;98702.44;;;10.22;nan
24666;BME280;29726;53.532;-1.478;2024-03-25T14:19:15;98652.00;;;9.87;nan
24666;BME280;29726;53.532;-1.478;2024-03-25T14:21:59;98694.81;;;10.22;nan
24666;BME280;29726;53.532;-1.478;2024-03-25T14:24:43;98678.34;;;10.13;nan
24666;BME280;29726;53.532;-1.478;2024-03-25T14:27:27;98696.81;;;10.27;nan
24666;BME280;29726;53.532;-1.478;2024-03-25T14:30:11;98680.88;;;10.22;nan
24666;BME280;29726;53.532;-1.478;2024-03-25T14:32:58;98684.44;;;10.23;nan
24666;BME280;29726;53.532;-1.478;2024-03-25T14:35:43;98666.44;;;10.18;nan
24666;BME280;29726;53.532;-1.478;2024-03-25T14:38:27;98660.59;;;10.22;nan
24666;BME280;29726;53.532;-1.478;2024-03-25T14:41:12;98682.38;;;10.34;nan
24666;BME280;29726;53.532;-1.478;2024-03-25T14:43:56;98663.13;;;10.20;nan
24666;BME280;29726;53.532;-1.478;2024-03-25T14:46:40;98671.72;;;10.33;nan
24666;BME280;29726;53.532;-1.478;2024-03-25T14:49:24;98667.91;;;10.36;nan
24666;BME280;29726;53.532;-1.478;2024-03-25T14:52:08;98655.28;;;10.24;nan
24666;BME280;29726;53.532;-1.478;2024-03-25T14:54:52;98658.53;;;10.39;nan